Time;durP1;ratioP1;P1;durP2;ratioP2;P2;SDS_P1;SDS_P2;PMS_P1;PMS_P2;Temp;Humidity;BMP_temperature;BMP_pressure;BME280_temperature;BME280_humidity;BME280_pressure;Samples;Min_cycle;Max_cycle;Signal;HPM_P1;HPM_P2
2023/08/17 00:00:46;;;;;;;2.30;2.20;;;;;;;21.56;88.30;95551.69;4348738;32;20193;-69
2023/08/17 00:03:11;;;;;;;2.27;2.17;;;;;;;21.49;88.57;95550.78;4341837;32;20199;-68
2023/08/17 00:05:37;;;;;;;2.97;1.77;;;;;;;21.55;88.30;95547.44;4346881;32;20193;-68
2023/08/17 00:08:02;;;;;;;1.47;1.40;;;;;;;21.54;88.34;95550.47;4337347;32;20208;-67
2023/08/17 00:10:28;;;;;;;2.07;1.63;;;;;;;21.54;88.28;95547.78;4348335;32;20182;-68
2023/08/17 00:12:53;;;;;;;1.87;1.77;;;;;;;;;;4346750;32;20189;-68
2023/08/17 00:15:19;;;;;;;2.27;2.10;;;;;;;;;;4352800;32;20210;-68
2023/08/17 00:17:45;;;;;;;1.87;1.77;;;;;;;21.46;89.03;95551.47;4357504;32;20185;-68
2023/08/17 00:20:11;;;;;;;2.27;2.07;;;;;;;21.44;88.88;95545.66;4341784;32;20256;-68
2023/08/17 00:22:38;;;;;;;2.07;1.87;;;;;;;21.43;88.87;95539.47;4343783;32;20188;-68
2023/08/17 00:25:04;;;;;;;1.47;1.37;;;;;;;21.46;88.62;95546.06;4331718;32;20189;-68
2023/08/17 00:27:32;;;;;;;1.67;1.67;;;;;;;21.46;88.47;95540.69;4338780;32;20185;-68
2023/08/17 00:29:57;;;;;;;1.90;1.80;;;;;;;21.36;89.07;95546.66;4359064;32;20177;-68
2023/08/17 00:32:22;;;;;;;1.73;1.63;;;;;;;21.30;89.36;95546.16;4337470;32;20189;-68
2023/08/17 00:34:48;;;;;;;1.20;1.20;;;;;;;21.32;89.29;95543.91;4343010;32;20223;-68
2023/08/17 00:37:13;;;;;;;2.17;2.07;;;;;;;21.26;89.52;95545.31;4347490;32;20182;-68
2023/08/17 00:39:38;;;;;;;1.73;1.73;;;;;;;21.27;89.34;95550.34;4346642;32;20236;-68
2023/08/17 00:42:04;;;;;;;6.93;2.03;;;;;;;21.33;89.06;95550.06;4349878;32;20189;-68
2023/08/17 00:44:29;;;;;;;2.33;2.23;;;;;;;21.33;88.95;95547.38;4350297;32;20211;-68
2023/08/17 00:46:56;;;;;;;1.37;1.37;;;;;;;21.22;89.46;95556.03;4359570;32;20181;-68
2023/08/17 00:49:22;;;;;;;1.90;1.80;;;;;;;21.15;89.95;95555.09;4358810;32;20272;-68
2023/08/17 00:51:48;;;;;;;1.40;1.40;;;;;;;21.16;89.92;95552.03;4359717;32;20185;-68
2023/08/17 00:54:17;;;;;;;1.83;1.73;;;;;;;21.20;89.85;95547.50;4341328;32;20211;-68
2023/08/17 00:56:43;;;;;;;1.67;1.67;;;;;;;21.22;89.71;95545.25;4344129;32;20193;-68
2023/08/17 00:59:11;;;;;;;1.70;1.70;;;;;;;21.18;89.77;95538.97;4345409;32;20346;-68
2023/08/17 01:01:37;;;;;;;1.17;1.17;;;;;;;21.22;89.84;95539.84;4354595;32;20259;-68
2023/08/17 01:04:02;;;;;;;2.63;1.90;;;;;;;21.24;89.69;95526.00;4356905;32;20211;-68
2023/08/17 01:06:28;;;;;;;1.97;1.87;;;;;;;21.18;90.15;95538.97;4344531;32;20238;-68
2023/08/17 01:08:53;;;;;;;1.53;1.53;;;;;;;21.00;91.09;95543.22;4335005;32;20208;-68
2023/08/17 01:11:44;;;;;;;1.57;1.50;;;;;;;21.05;90.78;95542.94;4347884;32;20292;-68
2023/08/17 01:14:20;;;;;;;2.60;2.50;;;;;;;20.95;91.14;95548.13;4351106;32;20185;-68
2023/08/17 01:16:55;;;;;;;2.13;2.03;;;;;;;20.80;91.53;95538.94;4339527;32;20193;-68
2023/08/17 01:19:27;;;;;;;2.60;2.50;;;;;;;20.69;92.15;95538.72;4356310;32;20240;-68
2023/08/17 01:22:00;;;;;;;1.60;1.60;;;;;;;20.70;92.18;95536.81;4356815;32;20204;-68
2023/08/17 01:24:26;;;;;;;1.83;1.73;;;;;;;20.73;91.88;95539.59;4333340;32;20189;-68
2023/08/17 01:26:53;;;;;;;2.07;1.97;;;;;;;20.70;91.88;95548.38;4346583;32;20256;-68
2023/08/17 01:29:18;;;;;;;1.77;1.67;;;;;;;20.68;92.09;95545.25;4333044;32;20196;-68
2023/08/17 01:32:04;;;;;;;1.67;1.67;;;;;;;20.50;92.75;95552.16;4335065;32;20256;-68
2023/08/17 01:34:36;;;;;;;2.23;2.13;;;;;;;20.57;92.55;95552.34;4328153;32;20190;-67
2023/08/17 01:37:07;;;;;;;1.87;1.77;;;;;;;20.65;92.25;95555.94;4328920;32;20265;-67
2023/08/17 01:39:39;;;;;;;2.27;2.13;;;;;;;20.69;91.82;95557.59;4342111;32;20190;-68
2023/08/17 01:42:06;;;;;;;1.70;1.70;;;;;;;20.70;91.92;95551.06;4335240;32;20265;-68
2023/08/17 01:44:32;;;;;;;3.13;1.70;;;;;;;20.72;91.81;95546.09;4340652;32;20244;-68
2023/08/17 01:46:59;;;;;;;1.90;1.80;;;;;;;20.59;92.61;95542.72;4340840;32;20251;-68
2023/08/17 01:49:26;;;;;;;1.10;1.10;;;;;;;20.61;92.72;95536.22;4350861;32;20185;-68
2023/08/17 01:51:51;;;;;;;1.67;1.67;;;;;;;20.65;92.44;95537.06;4356019;32;20192;-68
2023/08/17 01:54:18;;;;;;;2.07;1.97;;;;;;;20.59;92.44;95534.66;4357715;32;20226;-68
2023/08/17 01:56:44;;;;;;;2.07;1.97;;;;;;;20.67;92.24;95540.19;4358808;32;20271;-68
2023/08/17 01:59:10;;;;;;;1.43;1.40;;;;;;;20.65;92.33;95539.78;4359958;32;20252;-68
2023/08/17 02:01:35;;;;;;;1.40;1.40;;;;;;;20.53;92.81;95533.38;4341411;32;20196;-68
2023/08/17 02:04:02;;;;;;;2.07;1.97;;;;;;;20.50;93.10;95522.50;4351866;32;20216;-67
2023/08/17 02:06:29;;;;;;;1.37;1.37;;;;;;;20.49;93.03;95529.81;4357602;32;20249;-68
2023/08/17 02:08:55;;;;;;;1.23;1.23;;;;;;;20.52;92.63;95522.94;4354343;32;20287;-68
2023/08/17 02:11:21;;;;;;;1.57;1.57;;;;;;;20.58;92.46;95516.91;4348429;32;20364;-68
2023/08/17 02:13:46;;;;;;;1.60;1.53;;;;;;;20.56;92.43;95513.03;4352188;32;20193;-68
2023/08/17 02:16:11;;;;;;;1.67;1.57;;;;;;;20.53;92.48;95519.91;4332516;32;20174;-68
2023/08/17 02:18:38;;;;;;;1.83;1.73;;;;;;;20.38;92.91;95523.38;4349651;32;20200;-68
2023/08/17 02:21:03;;;;;;;2.00;1.90;;;;;;;20.37;92.99;95519.13;4337842;32;20201;-68
2023/08/17 02:23:28;;;;;;;1.80;1.70;;;;;;;20.32;93.01;95513.22;4359111;32;20233;-68
2023/08/17 02:25:54;;;;;;;1.63;1.63;;;;;;;20.31;93.18;95511.66;4334764;32;20224;-68
2023/08/17 02:28:19;;;;;;;1.37;1.37;;;;;;;20.26;93.34;95510.00;4335524;32;20334;-68
2023/08/17 02:30:46;;;;;;;1.70;1.47;;;;;;;20.27;93.29;95513.47;4345505;32;20246;-68
2023/08/17 02:33:11;;;;;;;2.27;2.17;;;;;;;20.26;93.29;95507.31;4364483;32;20224;-68
2023/08/17 02:35:37;;;;;;;2.00;1.90;;;;;;;20.22;93.37;95504.53;4335976;32;20194;-68
2023/08/17 02:38:02;;;;;;;3.20;2.27;;;;;;;20.31;92.88;95500.88;4332378;32;20253;-68
2023/08/17 02:40:28;;;;;;;1.43;1.43;;;;;;;20.27;93.05;95500.00;4348362;32;20181;-68
2023/08/17 02:42:53;;;;;;;1.80;1.70;;;;;;;20.32;92.83;95497.03;4344721;32;20216;-69
2023/08/17 02:45:18;;;;;;;1.07;1.07;;;;;;;20.20;93.27;95508.69;4358481;32;20256;-68
2023/08/17 02:47:44;;;;;;;2.70;2.07;;;;;;;20.28;92.77;95504.25;4345931;32;20272;-68
2023/08/17 02:50:09;;;;;;;2.53;2.43;;;;;;;20.33;92.50;95504.00;4357853;32;20285;-68
2023/08/17 02:52:36;;;;;;;1.93;1.83;;;;;;;20.28;92.56;95510.44;4349175;32;20189;-68
2023/08/17 02:55:01;;;;;;;1.60;1.60;;;;;;;20.25;92.67;95508.44;4353605;32;20199;-67
2023/08/17 02:57:26;;;;;;;1.80;1.70;;;;;;;20.18;92.76;95508.25;4337273;32;20253;-68
2023/08/17 02:59:53;;;;;;;1.60;1.53;;;;;;;20.10;93.13;95512.72;4341135;32;20193;-68
2023/08/17 03:02:18;;;;;;;1.97;1.97;;;;;;;20.14;93.01;95510.91;4344478;32;20182;-68
2023/08/17 03:04:44;;;;;;;2.37;2.23;;;;;;;20.15;92.80;95506.28;4343106;32;20247;-68
2023/08/17 03:07:09;;;;;;;2.23;2.13;;;;;;;20.19;92.65;95504.44;4336454;32;20239;-68
2023/08/17 03:09:34;;;;;;;2.30;1.80;;;;;;;20.20;92.30;95508.69;4344491;32;20200;-68
2023/08/17 03:11:59;;;;;;;1.17;1.13;;;;;;;20.18;92.30;95513.66;4346342;32;20197;-66
2023/08/17 03:14:26;;;;;;;2.70;2.50;;;;;;;20.18;92.31;95508.25;4343955;32;20189;-68
2023/08/17 03:16:52;;;;;;;1.63;1.63;;;;;;;20.11;92.73;95508.12;4347139;32;20189;-68
2023/08/17 03:19:18;;;;;;;2.03;1.93;;;;;;;20.04;92.88;95508.72;4353577;32;20181;-68
2023/08/17 03:21:43;;;;;;;1.27;1.27;;;;;;;20.05;92.96;95514.88;4343182;32;20185;-68
2023/08/17 03:24:09;;;;;;;1.93;1.83;;;;;;;20.03;93.16;95514.44;4336331;32;20228;-68
2023/08/17 03:26:34;;;;;;;1.20;1.20;;;;;;;20.08;92.60;95511.50;4345372;32;20185;-68
2023/08/17 03:28:59;;;;;;;1.67;1.67;;;;;;;20.07;92.63;95512.63;4341449;32;20189;-68
2023/08/17 03:31:25;;;;;;;1.87;1.80;;;;;;;20.03;92.62;95522.53;4353333;32;20202;-68
2023/08/17 03:33:50;;;;;;;1.50;1.47;;;;;;;19.94;93.02;95517.34;4342673;32;20261;-68
2023/08/17 03:36:16;;;;;;;2.50;2.37;;;;;;;19.96;92.79;95523.12;4336034;32;20233;-68
2023/08/17 03:38:42;;;;;;;2.17;2.07;;;;;;;19.99;92.83;95524.34;4355480;32;20215;-68
2023/08/17 03:41:07;;;;;;;1.77;1.67;;;;;;;19.92;93.08;95526.87;4333351;32;20194;-68
2023/08/17 03:43:33;;;;;;;1.93;1.93;;;;;;;19.83;93.51;95527.06;4329684;32;20248;-68
2023/08/17 03:45:59;;;;;;;2.10;2.00;;;;;;;19.96;92.92;95522.34;4331605;32;20181;-68
2023/08/17 03:48:25;;;;;;;1.93;1.83;;;;;;;19.98;92.65;95523.56;4344094;32;20219;-68
2023/08/17 03:50:54;;;;;;;1.30;1.30;;;;;;;19.80;93.39;95516.97;4343229;32;20269;-68
2023/08/17 03:53:20;;;;;;;1.50;1.43;;;;;;;19.87;93.36;95519.84;4357353;32;20331;-68
2023/08/17 03:55:47;;;;;;;4.40;1.87;;;;;;;19.79;93.68;95521.56;4327433;32;20193;-68
2023/08/17 03:58:13;;;;;;;2.43;2.23;;;;;;;19.89;93.25;95518.38;4345981;32;20208;-68
2023/08/17 04:00:39;;;;;;;1.10;1.10;;;;;;;19.88;93.41;95519.50;4352822;32;20178;-69
2023/08/17 04:03:04;;;;;;;1.67;1.67;;;;;;;19.91;93.33;95520.72;4339952;32;20212;-68
2023/08/17 04:05:29;;;;;;;1.83;1.73;;;;;;;19.88;93.20;95534.87;4335879;32;20193;-67
2023/08/17 04:07:55;;;;;;;1.30;1.30;;;;;;;19.88;93.35;95532.19;4346192;32;20189;-68
2023/08/17 04:10:20;;;;;;;1.50;1.50;;;;;;;19.95;92.94;95536.97;4349670;32;20192;-68
2023/08/17 04:12:45;;;;;;;1.93;1.73;;;;;;;19.92;92.87;95530.38;4338208;32;20211;-68
2023/08/17 04:15:12;;;;;;;1.67;1.63;;;;;;;19.94;92.81;95536.19;4351987;32;20224;-68
2023/08/17 04:17:37;;;;;;;1.60;1.53;;;;;;;19.96;92.42;95535.81;4336473;32;20184;-68
2023/08/17 04:20:04;;;;;;;1.93;1.83;;;;;;;19.87;92.69;95536.00;4352087;32;20219;-67
2023/08/17 04:22:29;;;;;;;1.87;1.77;;;;;;;19.97;92.53;95540.84;4333809;32;20208;-66
2023/08/17 04:24:55;;;;;;;2.97;2.83;;;;;;;19.87;92.70;95534.09;4339084;32;20237;-68
2023/08/17 04:27:20;;;;;;;2.17;2.03;;;;;;;19.87;92.59;95544.88;4336265;32;20185;-68
2023/08/17 04:29:46;;;;;;;1.60;1.53;;;;;;;19.77;92.88;95548.06;4337830;32;20185;-68
2023/08/17 04:32:16;;;;;;;2.60;2.40;;;;;;;19.82;92.65;95550.50;4317992;32;20247;-68
2023/08/17 04:34:43;;;;;;;1.77;1.77;;;;;;;19.75;92.82;95555.69;4325494;32;20205;-68
2023/08/17 04:37:08;;;;;;;0.97;0.97;;;;;;;19.86;92.37;95553.28;4336940;32;20169;-68
2023/08/17 04:39:34;;;;;;;1.37;1.37;;;;;;;19.91;92.09;95553.03;4324592;33;20224;-68
2023/08/17 04:41:59;;;;;;;1.87;1.77;;;;;;;19.83;92.50;95551.28;4322402;32;20212;-68
2023/08/17 04:44:24;;;;;;;1.53;1.53;;;;;;;19.79;92.76;95559.28;4327159;32;20186;-68
2023/08/17 04:46:51;;;;;;;1.63;1.57;;;;;;;19.83;92.71;95557.47;4336633;32;20181;-68
2023/08/17 04:49:16;;;;;;;1.97;1.87;;;;;;;19.80;92.97;95560.06;4322142;32;20182;-68
2023/08/17 04:51:41;;;;;;;1.70;1.63;;;;;;;19.87;92.63;95563.72;4327206;32;20186;-68
2023/08/17 04:54:07;;;;;;;6.23;1.83;;;;;;;19.81;92.93;95562.41;4323846;32;20213;-68
2023/08/17 04:56:34;;;;;;;2.03;1.93;;;;;;;19.71;92.97;95564.84;4324785;32;20307;-68
2023/08/17 04:58:59;;;;;;;1.80;1.73;;;;;;;19.70;93.29;95563.25;4325907;33;20189;-68
2023/08/17 05:01:26;;;;;;;1.30;1.30;;;;;;;19.62;93.57;95564.97;4325348;32;20212;-68
2023/08/17 05:03:51;;;;;;;1.87;1.83;;;;;;;19.70;93.38;95566.75;4322824;32;20265;-68
2023/08/17 05:06:17;;;;;;;2.30;2.20;;;;;;;19.66;93.88;95557.78;4324681;32;20205;-68
2023/08/17 05:08:42;;;;;;;2.10;1.97;;;;;;;19.67;94.19;95559.34;4319947;32;20237;-68
2023/08/17 05:11:09;;;;;;;1.60;1.50;;;;;;;19.76;94.04;95565.34;4324444;32;20209;-68
2023/08/17 05:13:34;;;;;;;3.07;2.13;;;;;;;19.78;94.36;95579.25;4316557;33;20193;-67
2023/08/17 05:15:59;;;;;;;2.87;2.10;;;;;;;19.88;93.77;95564.50;4321620;32;20274;-64
2023/08/17 05:18:25;;;;;;;5.93;1.57;;;;;;;19.92;93.55;95564.59;4328868;32;20190;-68
2023/08/17 05:20:51;;;;;;;2.23;2.10;;;;;;;19.95;93.62;95569.28;4336651;32;20193;-68
2023/08/17 05:23:17;;;;;;;2.77;2.67;;;;;;;19.89;94.08;95566.06;4324010;32;20265;-68
2023/08/17 05:25:46;;;;;;;2.53;2.43;;;;;;;19.98;93.87;95569.34;4329753;32;20201;-67
2023/08/17 05:28:11;;;;;;;2.57;2.37;;;;;;;20.01;93.66;95571.38;4323795;32;20182;-67
2023/08/17 05:30:36;;;;;;;2.57;2.47;;;;;;;20.03;94.07;95571.03;4332140;32;20190;-67
2023/08/17 05:33:02;;;;;;;2.23;2.13;;;;;;;20.10;93.80;95576.59;4324929;32;20301;-68
2023/08/17 05:35:27;;;;;;;1.53;1.53;;;;;;;20.01;94.35;95567.88;4332216;32;20216;-68
2023/08/17 05:37:54;;;;;;;1.33;1.33;;;;;;;20.09;94.11;95575.03;4332981;32;20260;-68
2023/08/17 05:40:19;;;;;;;1.93;1.83;;;;;;;20.15;94.15;95565.56;4333574;32;20197;-68
2023/08/17 05:42:46;;;;;;;1.60;1.60;;;;;;;20.11;94.23;95568.16;4328272;32;20204;-68
2023/08/17 05:45:11;;;;;;;9.20;2.77;;;;;;;20.20;93.70;95574.16;4327358;32;20235;-68
2023/08/17 05:47:36;;;;;;;2.27;2.17;;;;;;;20.26;93.54;95569.28;4332181;32;20201;-68
2023/08/17 05:50:02;;;;;;;2.07;1.97;;;;;;;20.27;93.63;95568.16;4334225;32;20236;-67
2023/08/17 05:52:27;;;;;;;1.63;1.63;;;;;;;20.29;94.01;95567.81;4334204;32;20216;-69
2023/08/17 05:54:54;;;;;;;3.00;2.80;;;;;;;20.27;94.55;95565.47;4332879;32;20290;-68
2023/08/17 05:57:19;;;;;;;4.73;1.93;;;;;;;20.31;94.44;95566.31;4325918;32;20216;-68
2023/08/17 05:59:44;;;;;;;1.87;1.77;;;;;;;20.30;94.61;95570.16;4329588;32;20190;-68
2023/08/17 06:02:10;;;;;;;2.40;2.20;;;;;;;20.36;94.46;95574.16;4309184;32;20222;-69
2023/08/17 06:04:35;;;;;;;3.47;3.27;;;;;;;20.39;94.42;95573.47;4326342;32;20277;-68
2023/08/17 06:07:00;;;;;;;2.03;1.93;;;;;;;20.44;94.25;95575.91;4338194;32;20190;-67
2023/08/17 06:09:26;;;;;;;2.43;2.33;;;;;;;20.46;94.59;95579.03;4341763;32;20216;-68
2023/08/17 06:11:52;;;;;;;2.10;2.00;;;;;;;20.49;94.58;95572.16;4331130;32;20190;-68
2023/08/17 06:14:18;;;;;;;1.40;1.37;;;;;;;20.50;94.48;95571.03;4327960;32;20252;-68
2023/08/17 06:16:43;;;;;;;1.37;1.37;;;;;;;20.54;93.93;95574.59;4326713;32;20261;-68
2023/08/17 06:19:08;;;;;;;2.23;2.13;;;;;;;20.48;93.62;95576.78;4335042;32;20204;-68
2023/08/17 06:21:35;;;;;;;2.20;2.10;;;;;;;20.54;93.60;95580.78;4333799;32;20185;-68
2023/08/17 06:24:00;;;;;;;1.60;1.60;;;;;;;20.60;93.34;95589.34;4341197;32;20221;-67
2023/08/17 06:26:25;;;;;;;2.17;2.07;;;;;;;20.67;92.96;95583.34;4339388;32;20228;-68
2023/08/17 06:28:52;;;;;;;1.83;1.73;;;;;;;20.72;92.71;95575.00;4336286;32;20182;-68
2023/08/17 06:31:19;;;;;;;1.80;1.80;;;;;;;20.80;92.29;95587.47;4332984;32;20190;-68
2023/08/17 06:33:44;;;;;;;1.67;1.60;;;;;;;20.85;92.15;95589.91;4339464;32;20244;-68
2023/08/17 06:36:13;;;;;;;1.23;1.23;;;;;;;20.92;92.19;95590.06;4346207;32;20225;-68
2023/08/17 06:38:40;;;;;;;1.13;1.10;;;;;;;20.97;92.21;95581.72;4346459;32;20249;-68
2023/08/17 06:41:07;;;;;;;1.87;1.80;;;;;;;21.06;92.07;95570.69;4346353;32;20274;-68
2023/08/17 06:43:32;;;;;;;1.53;1.53;;;;;;;21.20;91.98;95579.09;4357086;32;20189;-68
2023/08/17 06:46:00;;;;;;;2.10;1.70;;;;;;;21.38;90.89;95579.50;4329895;32;20211;-69
2023/08/17 06:48:26;;;;;;;1.37;1.37;;;;;;;21.50;89.95;95580.13;4351013;32;20222;-69
2023/08/17 06:50:51;;;;;;;1.90;1.80;;;;;;;21.54;90.45;95586.38;4350350;32;20186;-69
2023/08/17 06:53:16;;;;;;;2.83;1.80;;;;;;;21.57;89.77;95582.19;4353101;32;20189;-68
2023/08/17 06:55:42;;;;;;;1.63;1.40;;;;;;;21.60;89.72;95581.47;4342936;32;20189;-68
2023/08/17 06:58:07;;;;;;;1.60;1.60;;;;;;;21.55;90.36;95576.34;4345443;32;20211;-69
2023/08/17 07:00:33;;;;;;;1.73;1.63;;;;;;;21.57;89.96;95582.19;4343272;32;20189;-68
2023/08/17 07:03:00;;;;;;;1.43;1.40;;;;;;;21.64;89.33;95582.28;4338098;32;20231;-69
2023/08/17 07:05:27;;;;;;;2.17;2.07;;;;;;;21.65;89.03;95588.47;4364909;32;20193;-68
2023/08/17 07:07:55;;;;;;;1.97;1.87;;;;;;;21.64;88.81;95589.63;4342666;32;20190;-69
2023/08/17 07:10:21;;;;;;;1.20;1.20;;;;;;;21.77;88.56;95586.41;4341819;32;20321;-68
2023/08/17 07:12:46;;;;;;;1.77;1.77;;;;;;;21.84;87.70;95586.53;4327182;32;20226;-68
2023/08/17 07:15:13;;;;;;;1.10;1.10;;;;;;;21.94;87.82;95590.56;4343090;32;20201;-69
2023/08/17 07:17:38;;;;;;;2.03;1.93;;;;;;;21.95;87.35;95595.63;4338453;32;20263;-68
2023/08/17 07:20:05;;;;;;;2.07;1.87;;;;;;;22.07;86.10;95591.97;4355722;32;20240;-68
2023/08/17 07:22:31;;;;;;;2.33;2.23;;;;;;;22.07;85.94;95591.97;4352841;32;20189;-67
2023/08/17 07:24:58;;;;;;;1.53;1.50;;;;;;;22.10;86.04;95593.97;4342944;32;20185;-68
2023/08/17 07:27:23;;;;;;;1.47;1.37;;;;;;;22.15;86.21;95601.00;4336820;32;20212;-69
2023/08/17 07:29:49;;;;;;;1.03;1.03;;;;;;;22.21;85.44;95604.97;4334149;32;20194;-69
2023/08/17 07:32:14;;;;;;;1.10;1.10;;;;;;;22.26;83.92;95597.31;4354275;32;20227;-68
2023/08/17 07:34:39;;;;;;;1.30;1.30;;;;;;;22.30;83.85;95597.38;4333929;32;20371;-69
2023/08/17 07:37:05;;;;;;;1.43;1.43;;;;;;;22.33;83.57;95598.59;4342090;32;20189;-69
2023/08/17 07:39:31;;;;;;;2.23;2.03;;;;;;;22.40;83.40;95602.19;4342981;32;20240;-66
2023/08/17 07:41:58;;;;;;;3.27;3.07;;;;;;;22.47;83.34;95599.59;4348625;32;20247;-69
2023/08/17 07:44:23;;;;;;;4.73;4.43;;;;;;;22.57;81.77;95596.28;4343543;32;20207;-69
2023/08/17 07:46:50;;;;;;;4.37;4.07;;;;;;;22.57;82.78;95603.63;4338105;32;20205;-68
2023/08/17 07:49:15;;;;;;;9.87;6.50;;;;;;;22.64;82.97;95601.03;4348333;32;20251;-68
2023/08/17 07:51:42;;;;;;;69.20;50.93;;;;;;;22.62;82.71;95608.72;4334723;32;20185;-69
2023/08/17 07:54:07;;;;;;;52.83;42.60;;;;;;;22.65;82.44;95601.81;4356298;32;20189;-68
2023/08/17 07:56:33;;;;;;;31.80;26.03;;;;;;;22.68;82.38;95596.44;4356109;32;20227;-68
2023/08/17 07:58:59;;;;;;;18.30;16.57;;;;;;;22.71;82.50;95597.63;4337361;32;20255;-68
2023/08/17 08:01:25;;;;;;;13.13;11.93;;;;;;;22.76;82.98;95591.91;4343161;32;20251;-68
2023/08/17 08:03:51;;;;;;;11.73;10.57;;;;;;;22.77;82.84;95588.06;4346368;32;20277;-68
2023/08/17 08:06:20;;;;;;;12.60;10.37;;;;;;;22.82;82.69;95590.50;4356042;32;20189;-69
2023/08/17 08:08:45;;;;;;;6.43;5.93;;;;;;;22.90;81.65;95592.12;4335130;32;20193;-68
2023/08/17 08:11:11;;;;;;;4.97;4.57;;;;;;;22.89;82.35;95593.28;4352043;32;20173;-68
2023/08/17 08:13:37;;;;;;;8.23;7.57;;;;;;;22.95;81.79;95589.13;4332500;32;20201;-68
2023/08/17 08:16:03;;;;;;;78.03;46.73;;;;;;;23.00;81.62;95591.53;4340071;32;20181;-67
2023/08/17 08:18:30;;;;;;;10.63;9.77;;;;;;;22.99;81.39;95589.97;4357125;32;20244;-69
2023/08/17 08:20:55;;;;;;;2.60;2.47;;;;;;;23.05;81.21;95595.84;4339061;32;20236;-69
2023/08/17 08:23:21;;;;;;;1.23;1.23;;;;;;;23.14;80.34;95588.22;4341220;32;20208;-68
2023/08/17 08:25:46;;;;;;;2.03;1.93;;;;;;;23.19;80.25;95575.16;4341850;32;20249;-68
2023/08/17 08:28:13;;;;;;;1.50;1.47;;;;;;;23.25;80.16;95581.81;4347554;32;20310;-68
2023/08/17 08:30:39;;;;;;;1.20;1.20;;;;;;;23.37;80.12;95578.06;4339121;32;20193;-68
2023/08/17 08:33:05;;;;;;;2.30;2.20;;;;;;;23.56;79.02;95580.63;4331370;32;20189;-68
2023/08/17 08:35:30;;;;;;;2.07;1.97;;;;;;;23.64;78.80;95589.63;4329232;32;20290;-67
2023/08/17 08:37:55;;;;;;;1.20;1.20;;;;;;;23.66;80.44;95584.62;4331709;32;20224;-68
2023/08/17 08:40:27;;;;;;;1.10;1.10;;;;;;;23.65;80.46;95583.06;4335772;32;20216;-68
2023/08/17 08:42:53;;;;;;;2.37;1.50;;;;;;;23.69;80.27;95586.59;4328803;32;20194;-69
2023/08/17 08:45:19;;;;;;;1.83;1.83;;;;;;;23.66;78.46;95584.62;4326527;32;20208;-69
2023/08/17 08:47:45;;;;;;;2.03;1.93;;;;;;;23.74;78.53;95583.53;4332871;32;20288;-68
2023/08/17 08:50:17;;;;;;;1.47;1.40;;;;;;;23.76;79.82;95588.59;4335149;32;20232;-68
2023/08/17 08:52:46;;;;;;;1.07;1.07;;;;;;;23.80;79.55;95592.91;4325891;32;20181;-68
2023/08/17 08:55:17;;;;;;;4.23;1.17;;;;;;;23.87;77.75;95582.13;4326420;32;20186;-68
2023/08/17 08:57:43;;;;;;;1.00;1.00;;;;;;;23.98;77.33;95577.59;4325730;32;20240;-68
2023/08/17 09:00:09;;;;;;;0.97;0.97;;;;;;;24.16;76.72;95588.59;4327733;32;20197;-69
2023/08/17 09:02:35;;;;;;;1.40;1.30;;;;;;;24.20;77.27;95583.22;4333336;32;20186;-68
2023/08/17 09:05:01;;;;;;;1.60;1.50;;;;;;;24.18;78.24;95580.09;4327105;32;20260;-67
2023/08/17 09:07:29;;;;;;;1.80;1.70;;;;;;;24.11;78.05;95578.09;4326602;32;20182;-68
2023/08/17 09:09:56;;;;;;;0.90;0.90;;;;;;;24.14;77.51;95580.06;4333001;32;20255;-69
2023/08/17 09:12:23;;;;;;;1.37;1.37;;;;;;;24.19;76.66;95581.66;4329648;32;20185;-69
2023/08/17 09:14:48;;;;;;;1.13;1.13;;;;;;;24.19;76.82;95568.09;4335445;32;20190;-68
2023/08/17 09:17:13;;;;;;;1.27;1.17;;;;;;;24.27;75.95;95570.53;4333051;32;20197;-68
2023/08/17 09:19:47;;;;;;;1.57;1.57;;;;;;;24.26;76.24;95570.91;4331814;32;20237;-68
2023/08/17 09:22:12;;;;;;;1.33;1.33;;;;;;;24.26;76.99;95563.53;4336539;32;20189;-68
2023/08/17 09:24:37;;;;;;;2.50;2.40;;;;;;;24.30;77.15;95563.59;4333331;32;20237;-68
2023/08/17 09:27:03;;;;;;;1.47;1.47;;;;;;;24.40;75.49;95562.88;4329501;32;20194;-68
2023/08/17 09:29:36;;;;;;;0.77;0.77;;;;;;;24.55;73.37;95564.53;4335240;32;20185;-69
2023/08/17 09:32:07;;;;;;;1.30;1.30;;;;;;;24.64;72.84;95561.50;4321618;32;20206;-68
2023/08/17 09:34:32;;;;;;;1.57;1.47;;;;;;;24.77;73.28;95561.94;4314331;32;20208;-68
2023/08/17 09:37:05;;;;;;;2.30;2.20;;;;;;;24.78;73.37;95555.38;4321595;32;20209;-69
2023/08/17 09:39:31;;;;;;;1.30;1.30;;;;;;;24.84;71.72;95559.28;4315673;32;20220;-68
2023/08/17 09:42:00;;;;;;;1.33;1.23;;;;;;;24.85;71.37;95555.41;4330439;33;20197;-68
2023/08/17 09:44:25;;;;;;;1.40;1.40;;;;;;;24.87;72.04;95558.53;4331268;32;20221;-68
2023/08/17 09:46:51;;;;;;;1.10;1.10;;;;;;;24.88;71.13;95557.37;4318849;33;20194;-68
2023/08/17 09:49:18;;;;;;;1.57;1.47;;;;;;;24.87;71.65;95553.88;4330244;32;20200;-68
2023/08/17 09:51:44;;;;;;;1.33;1.33;;;;;;;24.84;71.06;95551.94;4323429;32;20280;-68
2023/08/17 09:54:30;;;;;;;1.37;1.37;;;;;;;24.87;70.99;95543.03;4318070;32;20190;-68
2023/08/17 09:56:58;;;;;;;0.70;0.70;;;;;;;24.88;71.16;95551.94;4335040;32;20237;-69
2023/08/17 09:59:23;;;;;;;0.73;0.73;;;;;;;25.17;69.33;95556.38;4322117;32;20259;-68
2023/08/17 10:01:51;;;;;;;1.27;1.27;;;;;;;25.39;68.41;95553.75;4318033;32;20187;-69
2023/08/17 10:04:23;;;;;;;2.63;1.53;;;;;;;25.59;66.72;95554.97;4317018;32;20212;-69
2023/08/17 10:06:52;;;;;;;2.33;2.17;;;;;;;25.53;67.37;95551.09;4318997;32;20190;-69
2023/08/17 10:09:24;;;;;;;3.10;2.90;;;;;;;25.53;67.08;95553.81;4337473;32;20186;-68
2023/08/17 10:11:54;;;;;;;2.30;2.20;;;;;;;25.63;66.62;95550.37;4337762;32;20210;-68
2023/08/17 10:14:27;;;;;;;1.40;1.40;;;;;;;25.53;66.83;95551.88;4315700;32;20194;-68
2023/08/17 10:17:10;;;;;;;6.53;5.07;;;;;;;25.54;67.32;95549.94;4331047;32;20300;-68
2023/08/17 10:19:51;;;;;;;9.03;4.37;;;;;;;25.54;68.84;95552.66;4324170;32;20250;-68
2023/08/17 10:22:38;;;;;;;7.33;6.60;;;;;;;25.52;68.11;95552.25;4325530;32;20228;-68
2023/08/17 10:25:05;;;;;;;2.37;2.17;;;;;;;25.56;67.40;95544.91;4316945;32;20268;-68
2023/08/17 10:27:32;;;;;;;1.30;1.30;;;;;;;25.61;66.70;95539.06;4332865;32;20213;-67
2023/08/17 10:29:58;;;;;;;3.13;2.93;;;;;;;25.87;65.99;95546.16;4318823;32;20201;-69
2023/08/17 10:32:24;;;;;;;1.73;1.63;;;;;;;26.05;63.48;95555.09;4330515;32;20208;-69
2023/08/17 10:34:51;;;;;;;4.77;4.47;;;;;;;26.00;63.98;95548.09;4348068;32;20190;-68
2023/08/17 10:37:18;;;;;;;5.17;4.50;;;;;;;26.06;62.55;95551.22;4328693;32;20182;-68
2023/08/17 10:39:48;;;;;;;8.93;6.37;;;;;;;26.10;62.29;95551.22;4335149;32;20181;-68
2023/08/17 10:42:16;;;;;;;1.97;0.80;;;;;;;26.08;61.71;95550.84;4340069;32;20178;-68
2023/08/17 10:44:49;;;;;;;1.20;1.20;;;;;;;26.14;61.56;95541.13;4335496;32;20182;-68
2023/08/17 10:47:21;;;;;;;0.83;0.83;;;;;;;26.09;62.46;95544.25;4335131;32;20186;-69
2023/08/17 10:50:06;;;;;;;0.93;0.87;;;;;;;26.02;62.72;95536.84;4333607;32;20181;-69
2023/08/17 10:52:35;;;;;;;1.30;1.30;;;;;;;25.94;62.85;95541.50;4325693;32;20244;-68
2023/08/17 10:55:05;;;;;;;1.00;1.00;;;;;;;25.87;62.94;95548.88;4337956;32;20181;-67
2023/08/17 10:57:31;;;;;;;0.67;0.67;;;;;;;25.77;62.83;95542.28;4338332;32;20201;-69
2023/08/17 11:00:13;;;;;;;1.00;1.00;;;;;;;25.74;64.27;95547.69;4333986;32;20236;-68
2023/08/17 11:02:38;;;;;;;0.93;0.93;;;;;;;25.61;64.21;95539.84;4333540;32;20190;-68
2023/08/17 11:05:05;;;;;;;1.50;1.50;;;;;;;25.63;63.62;95544.94;4333654;32;20201;-68
2023/08/17 11:07:41;;;;;;;0.93;0.93;;;;;;;25.66;62.73;95536.00;4333270;32;20181;-67
2023/08/17 11:10:30;;;;;;;3.80;3.17;;;;;;;25.63;62.89;95539.50;4323686;32;20251;-68
2023/08/17 11:12:59;;;;;;;3.00;2.70;;;;;;;25.70;62.63;95536.03;4339687;32;20204;-69
2023/08/17 11:15:26;;;;;;;1.43;1.43;;;;;;;25.79;62.03;95536.41;4330489;32;20229;-69
2023/08/17 11:17:52;;;;;;;0.90;0.90;;;;;;;25.77;63.19;95541.50;4333926;32;20182;-68
2023/08/17 11:20:18;;;;;;;0.77;0.77;;;;;;;25.75;64.30;95533.72;4331800;32;20169;-69
2023/08/17 11:22:43;;;;;;;0.93;0.93;;;;;;;25.85;64.34;95541.09;4331734;32;20194;-68
2023/08/17 11:25:08;;;;;;;1.03;0.70;;;;;;;25.87;64.17;95527.13;4340242;32;20186;-68
2023/08/17 11:27:35;;;;;;;1.47;1.33;;;;;;;26.28;65.54;95528.31;4341298;32;20170;-68
2023/08/17 11:30:00;;;;;;;1.20;1.20;;;;;;;26.40;65.40;95534.53;4337256;32;20190;-68
2023/08/17 11:32:26;;;;;;;1.43;1.33;;;;;;;26.42;65.33;95533.00;4340845;32;20285;-68